BRU142 URMO-URSS
Flight info
| Callsign | BRU142 |
|---|---|
| Flight time | 0h 49m |
| Altitude | 30000 |
| Route | TAFIK G914 NAMEN G926 GUBOR G487 BINOL |
| Aircraft | A333/M-SDFGRYZ/S |
Departure
| Time | 2026-04-24 05:59 |
|---|---|
| Airport | Vladikavkaz Beslan International Airport (URMO) |
Arrival
| Time | 2026-04-24 06:48 |
|---|---|
| Airport | Sochi International Airport (URSS) |
| Time | Latitude | Longitude | Altitude | Speed | Heading |
|---|---|---|---|---|---|
| 2026-04-24 05:45 | 43.20192 | 44.61162 | 1674 ft | 0 kts | 11° |
| 2026-04-24 05:53 | 43.20193 | 44.61162 | 1674 ft | 0 kts | 11° |
| 2026-04-24 05:54 | 43.20197 | 44.61166 | 1674 ft | 0 kts | 40° |
| 2026-04-24 05:54 | 43.20206 | 44.61194 | 1674 ft | 7 kts | 60° |
| 2026-04-24 05:54 | 43.20274 | 44.61258 | 1672 ft | 17 kts | 17° |
| 2026-04-24 05:54 | 43.20419 | 44.61257 | 1671 ft | 25 kts | 311° |
| 2026-04-24 05:55 | 43.20469 | 44.60986 | 1669 ft | 33 kts | 281° |
| 2026-04-24 05:55 | 43.20518 | 44.60651 | 1665 ft | 39 kts | 283° |
| 2026-04-24 05:55 | 43.20578 | 44.60263 | 1660 ft | 45 kts | 281° |
| 2026-04-24 05:55 | 43.20643 | 44.59833 | 1655 ft | 46 kts | 282° |
| 2026-04-24 05:56 | 43.20706 | 44.59401 | 1650 ft | 47 kts | 282° |
| 2026-04-24 05:56 | 43.20758 | 44.59041 | 1643 ft | 10 kts | 276° |
| 2026-04-24 05:56 | 43.20746 | 44.58944 | 1644 ft | 9 kts | 249° |
| 2026-04-24 05:56 | 43.20768 | 44.58926 | 1643 ft | 6 kts | 64° |
| 2026-04-24 05:57 | 43.20767 | 44.58988 | 1643 ft | 6 kts | 103° |
| 2026-04-24 05:57 | 43.20767 | 44.58991 | 1643 ft | 0 kts | 103° |
| 2026-04-24 05:57 | 43.20766 | 44.58992 | 1643 ft | 0 kts | 103° |
| 2026-04-24 05:58 | 43.20737 | 44.59198 | 1646 ft | 58 kts | 102° |
| 2026-04-24 05:58 | 43.20599 | 44.60110 | 1660 ft | 134 kts | 102° |
| 2026-04-24 05:58 | 43.20377 | 44.61621 | 1780 ft | 184 kts | 102° |
| 2026-04-24 05:58 | 43.20101 | 44.63482 | 2250 ft | 219 kts | 100° |
| 2026-04-24 05:59 | 43.19755 | 44.65651 | 2911 ft | 236 kts | 104° |
| 2026-04-24 05:59 | 43.19405 | 44.67869 | 3532 ft | 246 kts | 101° |
| 2026-04-24 05:59 | 43.19070 | 44.70214 | 4116 ft | 257 kts | 101° |
| 2026-04-24 05:59 | 43.18731 | 44.72607 | 4672 ft | 257 kts | 101° |
| 2026-04-24 06:00 | 43.18342 | 44.74985 | 5202 ft | 254 kts | 111° |
| 2026-04-24 06:00 | 43.17338 | 44.76940 | 5760 ft | 256 kts | 141° |
| 2026-04-24 06:00 | 43.15744 | 44.77964 | 6323 ft | 259 kts | 171° |
| 2026-04-24 06:00 | 43.13960 | 44.77777 | 6880 ft | 260 kts | 200° |
| 2026-04-24 06:01 | 43.12460 | 44.76418 | 7397 ft | 263 kts | 228° |
| 2026-04-24 06:01 | 43.11596 | 44.74166 | 7896 ft | 278 kts | 256° |
| 2026-04-24 06:01 | 43.11549 | 44.71517 | 8402 ft | 291 kts | 275° |
| 2026-04-24 06:01 | 43.11557 | 44.68708 | 8907 ft | 301 kts | 264° |
| 2026-04-24 06:02 | 43.11379 | 44.65796 | 9385 ft | 314 kts | 263° |
| 2026-04-24 06:02 | 43.11151 | 44.62759 | 9833 ft | 328 kts | 262° |
| 2026-04-24 06:02 | 43.11124 | 44.59618 | 10233 ft | 344 kts | 277° |
| 2026-04-24 06:02 | 43.11637 | 44.56349 | 10662 ft | 358 kts | 279° |
| 2026-04-24 06:03 | 43.12147 | 44.52971 | 11068 ft | 369 kts | 279° |
| 2026-04-24 06:03 | 43.12711 | 44.49590 | 11470 ft | 366 kts | 285° |
| 2026-04-24 06:03 | 43.13913 | 44.46536 | 11817 ft | 369 kts | 303° |
| 2026-04-24 06:03 | 43.15446 | 44.43745 | 12215 ft | 365 kts | 302° |
| 2026-04-24 06:04 | 43.16953 | 44.40958 | 12602 ft | 365 kts | 302° |
| 2026-04-24 06:04 | 43.18452 | 44.38186 | 12946 ft | 362 kts | 302° |
| 2026-04-24 06:04 | 43.19957 | 44.35382 | 13376 ft | 365 kts | 302° |
| 2026-04-24 06:04 | 43.21457 | 44.32606 | 13775 ft | 365 kts | 301° |
| 2026-04-24 06:05 | 43.22960 | 44.29809 | 14162 ft | 366 kts | 301° |
| 2026-04-24 06:05 | 43.24477 | 44.26983 | 14557 ft | 369 kts | 301° |
| 2026-04-24 06:05 | 43.26006 | 44.24136 | 14970 ft | 369 kts | 300° |
| 2026-04-24 06:05 | 43.27504 | 44.21343 | 15374 ft | 370 kts | 300° |
| 2026-04-24 06:06 | 43.29041 | 44.18473 | 15768 ft | 374 kts | 300° |
| 2026-04-24 06:06 | 43.30585 | 44.15593 | 16185 ft | 376 kts | 300° |
| 2026-04-24 06:06 | 43.32141 | 44.12678 | 16573 ft | 380 kts | 300° |
| 2026-04-24 06:06 | 43.33690 | 44.09782 | 16998 ft | 384 kts | 300° |
| 2026-04-24 06:07 | 43.35273 | 44.06819 | 17404 ft | 386 kts | 299° |
| 2026-04-24 06:07 | 43.36857 | 44.03841 | 17831 ft | 390 kts | 300° |
| 2026-04-24 06:07 | 43.38464 | 44.00830 | 18261 ft | 393 kts | 300° |
| 2026-04-24 06:07 | 43.40080 | 43.97793 | 18648 ft | 395 kts | 300° |
| 2026-04-24 06:08 | 43.41662 | 43.94701 | 19080 ft | 391 kts | 294° |
| 2026-04-24 06:08 | 43.42777 | 43.91386 | 19520 ft | 387 kts | 287° |
| 2026-04-24 06:08 | 43.43852 | 43.87981 | 19932 ft | 388 kts | 287° |
| 2026-04-24 06:08 | 43.44934 | 43.84555 | 20349 ft | 391 kts | 287° |
| 2026-04-24 06:09 | 43.46009 | 43.81144 | 20794 ft | 391 kts | 287° |
| 2026-04-24 06:09 | 43.47075 | 43.77749 | 21204 ft | 391 kts | 287° |
| 2026-04-24 06:09 | 43.48161 | 43.74297 | 21621 ft | 395 kts | 287° |
| 2026-04-24 06:09 | 43.49248 | 43.70836 | 22031 ft | 395 kts | 287° |
| 2026-04-24 06:10 | 43.50338 | 43.67366 | 22445 ft | 397 kts | 286° |
| 2026-04-24 06:10 | 43.51080 | 43.63795 | 22815 ft | 386 kts | 271° |
| 2026-04-24 06:10 | 43.51008 | 43.60144 | 23201 ft | 382 kts | 261° |
| 2026-04-24 06:11 | 43.50488 | 43.52893 | 24031 ft | 384 kts | 260° |
| 2026-04-24 06:11 | 43.50213 | 43.49249 | 24432 ft | 384 kts | 261° |
| 2026-04-24 06:11 | 43.49941 | 43.45600 | 24861 ft | 385 kts | 261° |
| 2026-04-24 06:11 | 43.49663 | 43.41924 | 25282 ft | 386 kts | 260° |
| 2026-04-24 06:12 | 43.49383 | 43.38296 | 25692 ft | 387 kts | 261° |
| 2026-04-24 06:12 | 43.49094 | 43.34587 | 26105 ft | 389 kts | 259° |
| 2026-04-24 06:12 | 43.48803 | 43.30898 | 26533 ft | 389 kts | 260° |
| 2026-04-24 06:12 | 43.48517 | 43.27235 | 26974 ft | 390 kts | 259° |
| 2026-04-24 06:13 | 43.48225 | 43.23524 | 27416 ft | 390 kts | 260° |
| 2026-04-24 06:13 | 43.47932 | 43.19857 | 27849 ft | 390 kts | 260° |
| 2026-04-24 06:13 | 43.47641 | 43.16130 | 28280 ft | 390 kts | 259° |
| 2026-04-24 06:13 | 43.47338 | 43.12419 | 28708 ft | 390 kts | 259° |
| 2026-04-24 06:14 | 43.47047 | 43.08756 | 29135 ft | 389 kts | 259° |
| 2026-04-24 06:14 | 43.46750 | 43.05083 | 29552 ft | 388 kts | 259° |
| 2026-04-24 06:14 | 43.46450 | 43.01404 | 29885 ft | 390 kts | 259° |
| 2026-04-24 06:14 | 43.46421 | 42.97581 | 29710 ft | 408 kts | 270° |
| 2026-04-24 06:15 | 43.46715 | 42.93704 | 29836 ft | 409 kts | 270° |
| 2026-04-24 06:15 | 43.47267 | 42.85862 | 29778 ft | 420 kts | 269° |
| 2026-04-24 06:16 | 43.47823 | 42.77806 | 29835 ft | 424 kts | 270° |
| 2026-04-24 06:16 | 43.48367 | 42.69815 | 29808 ft | 416 kts | 269° |
| 2026-04-24 06:17 | 43.48763 | 42.61974 | 29838 ft | 414 kts | 269° |
| 2026-04-24 06:17 | 43.49165 | 42.54052 | 29797 ft | 417 kts | 269° |
| 2026-04-24 06:18 | 43.49560 | 42.46143 | 29778 ft | 415 kts | 269° |
| 2026-04-24 06:18 | 43.49956 | 42.38220 | 29833 ft | 417 kts | 269° |
| 2026-04-24 06:19 | 43.50337 | 42.30232 | 29871 ft | 420 kts | 269° |
| 2026-04-24 06:19 | 43.50713 | 42.22282 | 29829 ft | 417 kts | 269° |
| 2026-04-24 06:20 | 43.51091 | 42.14284 | 29822 ft | 421 kts | 268° |
| 2026-04-24 06:20 | 43.51462 | 42.06256 | 29783 ft | 421 kts | 269° |
| 2026-04-24 06:21 | 43.51831 | 41.98233 | 29781 ft | 420 kts | 269° |
| 2026-04-24 06:21 | 43.52190 | 41.90263 | 29728 ft | 423 kts | 269° |
| 2026-04-24 06:22 | 43.52824 | 41.82219 | 29815 ft | 430 kts | 281° |
| 2026-04-24 06:22 | 43.55274 | 41.74589 | 29842 ft | 440 kts | 288° |
| 2026-04-24 06:23 | 43.57778 | 41.66887 | 29801 ft | 440 kts | 287° |
| 2026-04-24 06:23 | 43.60249 | 41.59222 | 29778 ft | 437 kts | 287° |
| 2026-04-24 06:24 | 43.62696 | 41.51593 | 29789 ft | 436 kts | 288° |
| 2026-04-24 06:24 | 43.65165 | 41.43893 | 29736 ft | 435 kts | 288° |
| 2026-04-24 06:25 | 43.67598 | 41.36256 | 29813 ft | 439 kts | 288° |
| 2026-04-24 06:25 | 43.70054 | 41.28557 | 29745 ft | 438 kts | 288° |
| 2026-04-24 06:26 | 43.72483 | 41.20907 | 29784 ft | 440 kts | 288° |
| 2026-04-24 06:26 | 43.74926 | 41.13182 | 29782 ft | 440 kts | 288° |
| 2026-04-24 06:27 | 43.77359 | 41.05470 | 29768 ft | 437 kts | 288° |
| 2026-04-24 06:27 | 43.79791 | 40.97744 | 29773 ft | 438 kts | 288° |
| 2026-04-24 06:28 | 43.82192 | 40.90113 | 29728 ft | 419 kts | 288° |
| 2026-04-24 06:28 | 43.84458 | 40.82857 | 29710 ft | 409 kts | 287° |
| 2026-04-24 06:29 | 43.86694 | 40.75640 | 29697 ft | 408 kts | 286° |
| 2026-04-24 06:29 | 43.87270 | 40.71856 | 29655 ft | 397 kts | 269° |
| 2026-04-24 06:29 | 43.86943 | 40.68116 | 29733 ft | 391 kts | 253° |
| 2026-04-24 06:30 | 43.84931 | 40.61081 | 29619 ft | 397 kts | 248° |
| 2026-04-24 06:30 | 43.83841 | 40.57585 | 29055 ft | 400 kts | 248° |
| 2026-04-24 06:30 | 43.82728 | 40.54076 | 28472 ft | 394 kts | 248° |
| 2026-04-24 06:30 | 43.81633 | 40.50632 | 27937 ft | 394 kts | 248° |
| 2026-04-24 06:31 | 43.80525 | 40.47154 | 27405 ft | 394 kts | 248° |
| 2026-04-24 06:31 | 43.79427 | 40.43730 | 26799 ft | 393 kts | 248° |
| 2026-04-24 06:31 | 43.78321 | 40.40288 | 26093 ft | 390 kts | 248° |
| 2026-04-24 06:31 | 43.77231 | 40.36876 | 25412 ft | 386 kts | 248° |
| 2026-04-24 06:32 | 43.76137 | 40.33495 | 24757 ft | 392 kts | 248° |
| 2026-04-24 06:32 | 43.75035 | 40.30061 | 24019 ft | 390 kts | 247° |
| 2026-04-24 06:32 | 43.73946 | 40.26682 | 23253 ft | 388 kts | 247° |
| 2026-04-24 06:32 | 43.72860 | 40.23321 | 22474 ft | 385 kts | 248° |
| 2026-04-24 06:33 | 43.71767 | 40.19944 | 21695 ft | 382 kts | 248° |
| 2026-04-24 06:33 | 43.70703 | 40.16649 | 20890 ft | 375 kts | 247° |
| 2026-04-24 06:33 | 43.69619 | 40.13440 | 20040 ft | 365 kts | 242° |
| 2026-04-24 06:33 | 43.67966 | 40.10759 | 19522 ft | 374 kts | 225° |
| 2026-04-24 06:34 | 43.65740 | 40.08899 | 19046 ft | 377 kts | 211° |
| 2026-04-24 06:34 | 43.63377 | 40.07439 | 18524 ft | 369 kts | 212° |
| 2026-04-24 06:34 | 43.61071 | 40.05993 | 18024 ft | 364 kts | 211° |
| 2026-04-24 06:34 | 43.58797 | 40.04563 | 17532 ft | 358 kts | 211° |
| 2026-04-24 06:35 | 43.56547 | 40.03153 | 17008 ft | 354 kts | 210° |
| 2026-04-24 06:35 | 43.54299 | 40.01746 | 16371 ft | 354 kts | 210° |
| 2026-04-24 06:35 | 43.52076 | 40.00354 | 15738 ft | 353 kts | 210° |
| 2026-04-24 06:35 | 43.49860 | 39.98970 | 15124 ft | 352 kts | 210° |
| 2026-04-24 06:36 | 43.47625 | 39.97572 | 14498 ft | 350 kts | 210° |
| 2026-04-24 06:36 | 43.45416 | 39.96214 | 13865 ft | 350 kts | 207° |
| 2026-04-24 06:36 | 43.44887 | 39.95938 | 13715 ft | 351 kts | 205° |
| 2026-04-24 06:36 | 43.42668 | 39.94944 | 13040 ft | 351 kts | 203° |
| 2026-04-24 06:37 | 43.40362 | 39.93892 | 12409 ft | 349 kts | 203° |
| 2026-04-24 06:37 | 43.38138 | 39.92881 | 11624 ft | 329 kts | 203° |
| 2026-04-24 06:37 | 43.36037 | 39.91925 | 10968 ft | 311 kts | 203° |
| 2026-04-24 06:37 | 43.34023 | 39.91008 | 10315 ft | 296 kts | 203° |
| 2026-04-24 06:38 | 43.32120 | 39.90142 | 9665 ft | 285 kts | 203° |
| 2026-04-24 06:38 | 43.30276 | 39.89300 | 9021 ft | 277 kts | 202° |
| 2026-04-24 06:38 | 43.28480 | 39.88482 | 8385 ft | 271 kts | 202° |
| 2026-04-24 06:38 | 43.26717 | 39.87682 | 7734 ft | 266 kts | 200° |
| 2026-04-24 06:39 | 43.24961 | 39.86884 | 7133 ft | 263 kts | 200° |
| 2026-04-24 06:39 | 43.23236 | 39.86103 | 6510 ft | 261 kts | 199° |
| 2026-04-24 06:39 | 43.21521 | 39.85324 | 5951 ft | 258 kts | 199° |
| 2026-04-24 06:39 | 43.19871 | 39.84581 | 6043 ft | 247 kts | 199° |
| 2026-04-24 06:40 | 43.18237 | 39.83841 | 5940 ft | 251 kts | 199° |
| 2026-04-24 06:40 | 43.16603 | 39.83105 | 5915 ft | 242 kts | 200° |
| 2026-04-24 06:40 | 43.15013 | 39.82383 | 5971 ft | 242 kts | 198° |
| 2026-04-24 06:40 | 43.13390 | 39.81648 | 5931 ft | 245 kts | 198° |
| 2026-04-24 06:41 | 43.11779 | 39.80921 | 5949 ft | 243 kts | 199° |
| 2026-04-24 06:41 | 43.10150 | 39.80186 | 5820 ft | 250 kts | 199° |
| 2026-04-24 06:41 | 43.08537 | 39.79317 | 5537 ft | 250 kts | 212° |
| 2026-04-24 06:41 | 43.07356 | 39.77613 | 5227 ft | 253 kts | 240° |
| 2026-04-24 06:42 | 43.06925 | 39.75274 | 4852 ft | 262 kts | 269° |
| 2026-04-24 06:42 | 43.07382 | 39.72856 | 4488 ft | 271 kts | 296° |
| 2026-04-24 06:42 | 43.08661 | 39.70927 | 4115 ft | 279 kts | 324° |
| 2026-04-24 06:42 | 43.10463 | 39.70020 | 3929 ft | 276 kts | 354° |
| 2026-04-24 06:43 | 43.12311 | 39.70353 | 3885 ft | 271 kts | 22° |
| 2026-04-24 06:43 | 43.13879 | 39.71742 | 3628 ft | 270 kts | 42° |
| 2026-04-24 06:43 | 43.15296 | 39.73409 | 3388 ft | 269 kts | 42° |
| 2026-04-24 06:43 | 43.16717 | 39.75071 | 3143 ft | 269 kts | 42° |
| 2026-04-24 06:44 | 43.18134 | 39.76730 | 2902 ft | 268 kts | 42° |
| 2026-04-24 06:44 | 43.19551 | 39.78388 | 2662 ft | 268 kts | 43° |
| 2026-04-24 06:44 | 43.21033 | 39.79974 | 2405 ft | 269 kts | 31° |
| 2026-04-24 06:44 | 43.22776 | 39.80892 | 2166 ft | 270 kts | 16° |
| 2026-04-24 06:45 | 43.24594 | 39.81490 | 1964 ft | 268 kts | 13° |
| 2026-04-24 06:45 | 43.26406 | 39.81999 | 1958 ft | 265 kts | 13° |
| 2026-04-24 06:45 | 43.28105 | 39.82965 | 1965 ft | 264 kts | 30° |
| 2026-04-24 06:45 | 43.29728 | 39.84184 | 1953 ft | 264 kts | 30° |
| 2026-04-24 06:46 | 43.31325 | 39.85378 | 1948 ft | 264 kts | 30° |
| 2026-04-24 06:46 | 43.32925 | 39.86574 | 1874 ft | 254 kts | 30° |
| 2026-04-24 06:46 | 43.34410 | 39.87694 | 1908 ft | 230 kts | 32° |
| 2026-04-24 06:46 | 43.35789 | 39.88747 | 1635 ft | 225 kts | 30° |
| 2026-04-24 06:47 | 43.37140 | 39.89755 | 1367 ft | 220 kts | 30° |
| 2026-04-24 06:47 | 43.38481 | 39.90750 | 1111 ft | 214 kts | 30° |
| 2026-04-24 06:47 | 43.39780 | 39.91678 | 806 ft | 205 kts | 30° |
| 2026-04-24 06:47 | 43.40997 | 39.92599 | 561 ft | 200 kts | 32° |
| 2026-04-24 06:48 | 43.42186 | 39.93524 | 313 ft | 195 kts | 31° |
| 2026-04-24 06:48 | 43.43337 | 39.94380 | 74 ft | 183 kts | 32° |
| 2026-04-24 06:48 | 43.44065 | 39.94937 | 57 ft | 43 kts | 28° |
| 2026-04-24 06:48 | 43.44351 | 39.95147 | 60 ft | 47 kts | 28° |
| 2026-04-24 06:49 | 43.44615 | 39.95295 | 63 ft | 37 kts | 359° |
| 2026-04-24 06:49 | 43.44817 | 39.95221 | 64 ft | 24 kts | 302° |
| 2026-04-24 06:49 | 43.44840 | 39.95000 | 60 ft | 25 kts | 324° |
| 2026-04-24 06:49 | 43.44896 | 39.94874 | 60 ft | 9 kts | 279° |
| 2026-04-24 06:50 | 43.44877 | 39.94779 | 61 ft | 10 kts | 248° |
| 2026-04-24 06:50 | 43.44844 | 39.94681 | 60 ft | 12 kts | 245° |
| 2026-04-24 06:50 | 43.44804 | 39.94567 | 59 ft | 14 kts | 244° |
| 2026-04-24 06:50 | 43.44760 | 39.94439 | 60 ft | 15 kts | 246° |
| 2026-04-24 06:51 | 43.44714 | 39.94301 | 59 ft | 16 kts | 242° |
| 2026-04-24 06:51 | 43.44708 | 39.94226 | 58 ft | 6 kts | 295° |
| 2026-04-24 06:51 | 43.44727 | 39.94196 | 59 ft | 3 kts | 327° |
| 2026-04-24 06:51 | 43.44737 | 39.94190 | 60 ft | 0 kts | 334° |
| 2026-04-24 06:52 | 43.44746 | 39.94184 | 60 ft | 0 kts | 335° |